sensor_id;sensor_type;location;lat;lon;timestamp;P1;durP1;ratioP1;P2;durP2;ratioP2
62947;SDS011;51940;52.126;-0.994;2022-07-23T00:01:41;3.00;;;1.80;;
62947;SDS011;51940;52.126;-0.994;2022-07-23T00:04:09;3.30;;;2.20;;
62947;SDS011;51940;52.126;-0.994;2022-07-23T00:06:35;4.40;;;2.00;;
62947;SDS011;51940;52.126;-0.994;2022-07-23T00:09:00;6.50;;;2.20;;
62947;SDS011;51940;52.126;-0.994;2022-07-23T00:11:26;5.70;;;2.40;;
62947;SDS011;51940;52.126;-0.994;2022-07-23T00:13:51;3.40;;;2.40;;
62947;SDS011;51940;52.126;-0.994;2022-07-23T00:16:18;3.80;;;2.10;;
62947;SDS011;51940;52.126;-0.994;2022-07-23T00:18:44;4.20;;;2.50;;
62947;SDS011;51940;52.126;-0.994;2022-07-23T00:21:09;3.90;;;2.40;;
62947;SDS011;51940;52.126;-0.994;2022-07-23T00:23:35;7.60;;;2.60;;
62947;SDS011;51940;52.126;-0.994;2022-07-23T00:26:02;3.60;;;2.50;;
62947;SDS011;51940;52.126;-0.994;2022-07-23T00:28:27;2.60;;;2.30;;
62947;SDS011;51940;52.126;-0.994;2022-07-23T00:30:53;4.80;;;2.40;;
62947;SDS011;51940;52.126;-0.994;2022-07-23T00:33:18;4.70;;;2.40;;
62947;SDS011;51940;52.126;-0.994;2022-07-23T00:35:43;4.90;;;2.50;;
62947;SDS011;51940;52.126;-0.994;2022-07-23T00:38:09;4.10;;;2.30;;
62947;SDS011;51940;52.126;-0.994;2022-07-23T00:40:36;4.50;;;2.40;;
62947;SDS011;51940;52.126;-0.994;2022-07-23T00:43:03;2.80;;;2.00;;
62947;SDS011;51940;52.126;-0.994;2022-07-23T00:45:29;3.30;;;2.30;;
62947;SDS011;51940;52.126;-0.994;2022-07-23T00:47:55;3.80;;;2.80;;
62947;SDS011;51940;52.126;-0.994;2022-07-23T00:50:21;4.40;;;2.80;;
62947;SDS011;51940;52.126;-0.994;2022-07-23T00:52:47;3.40;;;2.40;;
62947;SDS011;51940;52.126;-0.994;2022-07-23T00:55:13;5.70;;;2.90;;
62947;SDS011;51940;52.126;-0.994;2022-07-23T00:57:39;5.30;;;2.50;;
62947;SDS011;51940;52.126;-0.994;2022-07-23T01:00:07;4.50;;;2.80;;
62947;SDS011;51940;52.126;-0.994;2022-07-23T01:02:35;5.50;;;2.90;;
62947;SDS011;51940;52.126;-0.994;2022-07-23T01:05:01;2.60;;;2.30;;
62947;SDS011;51940;52.126;-0.994;2022-07-23T01:07:27;4.80;;;3.00;;
62947;SDS011;51940;52.126;-0.994;2022-07-23T01:09:54;4.70;;;3.00;;
62947;SDS011;51940;52.126;-0.994;2022-07-23T01:12:19;5.10;;;2.80;;
62947;SDS011;51940;52.126;-0.994;2022-07-23T01:14:52;4.50;;;3.10;;
62947;SDS011;51940;52.126;-0.994;2022-07-23T01:17:22;5.70;;;2.80;;
62947;SDS011;51940;52.126;-0.994;2022-07-23T01:19:47;5.00;;;3.00;;
62947;SDS011;51940;52.126;-0.994;2022-07-23T01:22:13;5.50;;;3.00;;
62947;SDS011;51940;52.126;-0.994;2022-07-23T01:24:42;6.60;;;3.30;;
62947;SDS011;51940;52.126;-0.994;2022-07-23T01:27:08;4.60;;;3.20;;
62947;SDS011;51940;52.126;-0.994;2022-07-23T01:29:33;6.90;;;3.30;;
62947;SDS011;51940;52.126;-0.994;2022-07-23T01:31:59;3.40;;;2.90;;
62947;SDS011;51940;52.126;-0.994;2022-07-23T01:34:24;5.50;;;2.80;;
62947;SDS011;51940;52.126;-0.994;2022-07-23T01:36:50;4.80;;;3.20;;
62947;SDS011;51940;52.126;-0.994;2022-07-23T01:39:15;3.10;;;2.70;;
62947;SDS011;51940;52.126;-0.994;2022-07-23T01:41:41;4.90;;;3.90;;
62947;SDS011;51940;52.126;-0.994;2022-07-23T01:44:06;4.90;;;3.20;;
62947;SDS011;51940;52.126;-0.994;2022-07-23T01:46:32;5.00;;;2.90;;
62947;SDS011;51940;52.126;-0.994;2022-07-23T01:48:57;4.40;;;2.90;;
62947;SDS011;51940;52.126;-0.994;2022-07-23T01:51:23;5.60;;;3.30;;
62947;SDS011;51940;52.126;-0.994;2022-07-23T01:53:48;5.60;;;3.40;;
62947;SDS011;51940;52.126;-0.994;2022-07-23T01:56:14;5.10;;;3.00;;
62947;SDS011;51940;52.126;-0.994;2022-07-23T01:58:40;5.00;;;3.00;;
62947;SDS011;51940;52.126;-0.994;2022-07-23T02:01:06;6.40;;;3.10;;
62947;SDS011;51940;52.126;-0.994;2022-07-23T02:03:31;4.60;;;3.00;;
62947;SDS011;51940;52.126;-0.994;2022-07-23T02:05:57;5.30;;;3.40;;
62947;SDS011;51940;52.126;-0.994;2022-07-23T02:08:22;4.60;;;3.50;;
62947;SDS011;51940;52.126;-0.994;2022-07-23T02:10:48;5.60;;;3.40;;
62947;SDS011;51940;52.126;-0.994;2022-07-23T02:13:16;7.80;;;3.80;;
62947;SDS011;51940;52.126;-0.994;2022-07-23T02:15:41;6.50;;;3.60;;
62947;SDS011;51940;52.126;-0.994;2022-07-23T02:18:07;6.40;;;3.40;;
62947;SDS011;51940;52.126;-0.994;2022-07-23T02:20:33;4.60;;;3.30;;
62947;SDS011;51940;52.126;-0.994;2022-07-23T02:22:59;7.60;;;3.90;;
62947;SDS011;51940;52.126;-0.994;2022-07-23T02:25:24;6.40;;;3.00;;
62947;SDS011;51940;52.126;-0.994;2022-07-23T02:27:50;9.70;;;3.30;;
62947;SDS011;51940;52.126;-0.994;2022-07-23T02:30:15;3.80;;;2.80;;
62947;SDS011;51940;52.126;-0.994;2022-07-23T02:32:40;7.20;;;3.80;;
62947;SDS011;51940;52.126;-0.994;2022-07-23T02:35:06;4.60;;;3.20;;
62947;SDS011;51940;52.126;-0.994;2022-07-23T02:37:32;5.30;;;3.50;;
62947;SDS011;51940;52.126;-0.994;2022-07-23T02:39:58;6.20;;;4.10;;
62947;SDS011;51940;52.126;-0.994;2022-07-23T02:42:23;6.90;;;3.90;;
62947;SDS011;51940;52.126;-0.994;2022-07-23T02:44:49;6.00;;;3.90;;
62947;SDS011;51940;52.126;-0.994;2022-07-23T02:47:15;5.10;;;3.50;;
62947;SDS011;51940;52.126;-0.994;2022-07-23T02:49:41;4.70;;;3.50;;
62947;SDS011;51940;52.126;-0.994;2022-07-23T02:52:07;4.30;;;3.80;;
62947;SDS011;51940;52.126;-0.994;2022-07-23T02:54:35;6.40;;;3.60;;
62947;SDS011;51940;52.126;-0.994;2022-07-23T02:57:01;6.80;;;3.90;;
62947;SDS011;51940;52.126;-0.994;2022-07-23T02:59:26;5.20;;;3.70;;
62947;SDS011;51940;52.126;-0.994;2022-07-23T03:01:52;4.40;;;3.90;;
62947;SDS011;51940;52.126;-0.994;2022-07-23T03:04:17;5.80;;;4.20;;
62947;SDS011;51940;52.126;-0.994;2022-07-23T03:06:43;4.90;;;4.00;;
62947;SDS011;51940;52.126;-0.994;2022-07-23T03:09:08;6.50;;;4.00;;
62947;SDS011;51940;52.126;-0.994;2022-07-23T03:11:34;4.00;;;3.60;;
62947;SDS011;51940;52.126;-0.994;2022-07-23T03:14:00;6.20;;;3.50;;
62947;SDS011;51940;52.126;-0.994;2022-07-23T03:16:25;5.60;;;3.50;;
62947;SDS011;51940;52.126;-0.994;2022-07-23T03:18:50;3.80;;;3.30;;
62947;SDS011;51940;52.126;-0.994;2022-07-23T03:21:16;5.40;;;3.70;;
62947;SDS011;51940;52.126;-0.994;2022-07-23T03:23:42;5.20;;;3.40;;
62947;SDS011;51940;52.126;-0.994;2022-07-23T03:26:07;6.10;;;3.50;;
62947;SDS011;51940;52.126;-0.994;2022-07-23T03:28:33;4.50;;;3.90;;
62947;SDS011;51940;52.126;-0.994;2022-07-23T03:30:58;5.00;;;3.80;;
62947;SDS011;51940;52.126;-0.994;2022-07-23T03:33:24;5.00;;;3.70;;
62947;SDS011;51940;52.126;-0.994;2022-07-23T03:35:49;8.50;;;4.00;;
62947;SDS011;51940;52.126;-0.994;2022-07-23T03:38:15;10.50;;;3.90;;
62947;SDS011;51940;52.126;-0.994;2022-07-23T03:40:41;4.50;;;3.50;;
62947;SDS011;51940;52.126;-0.994;2022-07-23T03:43:07;4.90;;;3.30;;
62947;SDS011;51940;52.126;-0.994;2022-07-23T03:45:32;8.00;;;3.60;;
62947;SDS011;51940;52.126;-0.994;2022-07-23T03:47:58;5.90;;;4.20;;
62947;SDS011;51940;52.126;-0.994;2022-07-23T03:50:24;5.70;;;4.10;;
62947;SDS011;51940;52.126;-0.994;2022-07-23T03:52:50;7.10;;;4.20;;
62947;SDS011;51940;52.126;-0.994;2022-07-23T03:55:16;6.40;;;3.90;;
62947;SDS011;51940;52.126;-0.994;2022-07-23T03:57:41;8.10;;;3.90;;
62947;SDS011;51940;52.126;-0.994;2022-07-23T04:00:07;7.20;;;4.40;;
62947;SDS011;51940;52.126;-0.994;2022-07-23T04:02:35;6.10;;;4.40;;
62947;SDS011;51940;52.126;-0.994;2022-07-23T04:05:02;8.30;;;5.00;;
62947;SDS011;51940;52.126;-0.994;2022-07-23T04:07:29;7.80;;;4.30;;
62947;SDS011;51940;52.126;-0.994;2022-07-23T04:09:55;5.80;;;4.20;;
62947;SDS011;51940;52.126;-0.994;2022-07-23T04:12:21;7.40;;;4.40;;
62947;SDS011;51940;52.126;-0.994;2022-07-23T04:14:46;7.40;;;4.60;;
62947;SDS011;51940;52.126;-0.994;2022-07-23T04:17:12;7.30;;;4.50;;
62947;SDS011;51940;52.126;-0.994;2022-07-23T04:19:37;11.80;;;4.80;;
62947;SDS011;51940;52.126;-0.994;2022-07-23T04:22:09;8.40;;;4.80;;
62947;SDS011;51940;52.126;-0.994;2022-07-23T04:24:36;7.90;;;5.10;;
62947;SDS011;51940;52.126;-0.994;2022-07-23T04:27:02;9.10;;;4.90;;
62947;SDS011;51940;52.126;-0.994;2022-07-23T04:29:28;8.30;;;5.30;;
62947;SDS011;51940;52.126;-0.994;2022-07-23T04:31:54;8.40;;;4.90;;
62947;SDS011;51940;52.126;-0.994;2022-07-23T04:34:19;8.10;;;5.20;;
62947;SDS011;51940;52.126;-0.994;2022-07-23T04:36:45;8.30;;;5.30;;
62947;SDS011;51940;52.126;-0.994;2022-07-23T04:39:11;11.80;;;5.60;;
62947;SDS011;51940;52.126;-0.994;2022-07-23T04:41:36;11.30;;;5.50;;
62947;SDS011;51940;52.126;-0.994;2022-07-23T04:44:02;8.30;;;5.40;;
62947;SDS011;51940;52.126;-0.994;2022-07-23T04:46:28;7.70;;;5.50;;
62947;SDS011;51940;52.126;-0.994;2022-07-23T04:48:54;7.60;;;5.50;;
62947;SDS011;51940;52.126;-0.994;2022-07-23T04:51:19;8.80;;;5.90;;
62947;SDS011;51940;52.126;-0.994;2022-07-23T04:53:45;8.90;;;5.40;;
62947;SDS011;51940;52.126;-0.994;2022-07-23T04:56:10;13.80;;;6.40;;
62947;SDS011;51940;52.126;-0.994;2022-07-23T04:58:36;14.50;;;6.40;;
62947;SDS011;51940;52.126;-0.994;2022-07-23T05:01:01;16.10;;;7.30;;
62947;SDS011;51940;52.126;-0.994;2022-07-23T05:03:27;17.20;;;7.60;;
62947;SDS011;51940;52.126;-0.994;2022-07-23T05:05:53;16.70;;;7.50;;
62947;SDS011;51940;52.126;-0.994;2022-07-23T05:08:19;14.50;;;7.80;;
62947;SDS011;51940;52.126;-0.994;2022-07-23T05:10:45;16.20;;;8.70;;
62947;SDS011;51940;52.126;-0.994;2022-07-23T05:13:11;18.50;;;8.70;;
62947;SDS011;51940;52.126;-0.994;2022-07-23T05:15:36;19.30;;;8.50;;
62947;SDS011;51940;52.126;-0.994;2022-07-23T05:18:02;20.50;;;9.30;;
62947;SDS011;51940;52.126;-0.994;2022-07-23T05:20:27;17.40;;;9.70;;
62947;SDS011;51940;52.126;-0.994;2022-07-23T05:22:53;18.50;;;10.70;;
62947;SDS011;51940;52.126;-0.994;2022-07-23T05:25:18;20.20;;;10.70;;
62947;SDS011;51940;52.126;-0.994;2022-07-23T05:27:44;25.80;;;11.50;;
62947;SDS011;51940;52.126;-0.994;2022-07-23T05:30:10;23.60;;;12.00;;
62947;SDS011;51940;52.126;-0.994;2022-07-23T05:32:35;20.10;;;10.80;;
62947;SDS011;51940;52.126;-0.994;2022-07-23T05:35:06;18.30;;;11.40;;
62947;SDS011;51940;52.126;-0.994;2022-07-23T05:37:32;23.90;;;11.80;;
62947;SDS011;51940;52.126;-0.994;2022-07-23T05:40:01;24.40;;;12.20;;
62947;SDS011;51940;52.126;-0.994;2022-07-23T05:45:00;23.30;;;11.30;;
62947;SDS011;51940;52.126;-0.994;2022-07-23T05:47:26;21.40;;;12.30;;
62947;SDS011;51940;52.126;-0.994;2022-07-23T05:49:51;22.40;;;12.40;;
62947;SDS011;51940;52.126;-0.994;2022-07-23T05:52:17;21.40;;;12.60;;
62947;SDS011;51940;52.126;-0.994;2022-07-23T05:54:42;20.50;;;12.50;;
62947;SDS011;51940;52.126;-0.994;2022-07-23T05:57:08;20.20;;;12.60;;
62947;SDS011;51940;52.126;-0.994;2022-07-23T05:59:33;24.60;;;13.50;;
62947;SDS011;51940;52.126;-0.994;2022-07-23T06:01:59;17.10;;;12.30;;
62947;SDS011;51940;52.126;-0.994;2022-07-23T06:04:24;22.80;;;12.60;;
62947;SDS011;51940;52.126;-0.994;2022-07-23T06:06:50;22.60;;;13.50;;
62947;SDS011;51940;52.126;-0.994;2022-07-23T06:09:15;20.00;;;12.80;;
62947;SDS011;51940;52.126;-0.994;2022-07-23T06:11:41;22.90;;;13.20;;
62947;SDS011;51940;52.126;-0.994;2022-07-23T06:14:06;21.40;;;12.80;;
62947;SDS011;51940;52.126;-0.994;2022-07-23T06:16:32;26.10;;;14.60;;
62947;SDS011;51940;52.126;-0.994;2022-07-23T06:18:57;23.60;;;13.70;;
62947;SDS011;51940;52.126;-0.994;2022-07-23T06:21:23;21.60;;;13.40;;
62947;SDS011;51940;52.126;-0.994;2022-07-23T06:23:48;23.70;;;13.60;;
62947;SDS011;51940;52.126;-0.994;2022-07-23T06:26:14;25.20;;;13.70;;
62947;SDS011;51940;52.126;-0.994;2022-07-23T06:28:39;21.10;;;12.70;;
62947;SDS011;51940;52.126;-0.994;2022-07-23T06:31:05;21.00;;;12.60;;
62947;SDS011;51940;52.126;-0.994;2022-07-23T06:33:30;20.40;;;13.20;;
62947;SDS011;51940;52.126;-0.994;2022-07-23T06:35:56;17.90;;;11.80;;
62947;SDS011;51940;52.126;-0.994;2022-07-23T06:38:21;18.10;;;10.80;;
62947;SDS011;51940;52.126;-0.994;2022-07-23T06:40:46;15.80;;;10.60;;
62947;SDS011;51940;52.126;-0.994;2022-07-23T06:43:12;16.90;;;10.70;;
62947;SDS011;51940;52.126;-0.994;2022-07-23T06:45:37;16.60;;;10.90;;
62947;SDS011;51940;52.126;-0.994;2022-07-23T06:48:03;17.00;;;10.60;;
62947;SDS011;51940;52.126;-0.994;2022-07-23T06:50:29;15.00;;;11.00;;
62947;SDS011;51940;52.126;-0.994;2022-07-23T06:52:54;14.40;;;10.80;;
62947;SDS011;51940;52.126;-0.994;2022-07-23T06:55:20;13.50;;;9.80;;
62947;SDS011;51940;52.126;-0.994;2022-07-23T06:57:46;14.90;;;10.10;;
62947;SDS011;51940;52.126;-0.994;2022-07-23T07:00:11;13.70;;;9.90;;
62947;SDS011;51940;52.126;-0.994;2022-07-23T07:02:37;13.80;;;10.20;;
62947;SDS011;51940;52.126;-0.994;2022-07-23T07:05:03;14.30;;;10.40;;
62947;SDS011;51940;52.126;-0.994;2022-07-23T07:07:29;14.30;;;9.80;;
62947;SDS011;51940;52.126;-0.994;2022-07-23T07:09:54;11.00;;;9.20;;
62947;SDS011;51940;52.126;-0.994;2022-07-23T07:12:19;16.20;;;9.20;;
62947;SDS011;51940;52.126;-0.994;2022-07-23T07:14:45;11.10;;;9.10;;
62947;SDS011;51940;52.126;-0.994;2022-07-23T07:17:10;11.70;;;8.80;;
62947;SDS011;51940;52.126;-0.994;2022-07-23T07:19:36;12.30;;;8.90;;
62947;SDS011;51940;52.126;-0.994;2022-07-23T07:22:02;11.40;;;8.50;;
62947;SDS011;51940;52.126;-0.994;2022-07-23T07:24:28;12.20;;;8.50;;
62947;SDS011;51940;52.126;-0.994;2022-07-23T07:26:54;11.20;;;8.20;;
62947;SDS011;51940;52.126;-0.994;2022-07-23T07:29:19;11.10;;;8.00;;
62947;SDS011;51940;52.126;-0.994;2022-07-23T07:31:45;11.10;;;8.00;;
62947;SDS011;51940;52.126;-0.994;2022-07-23T07:34:10;9.60;;;7.10;;
62947;SDS011;51940;52.126;-0.994;2022-07-23T07:36:36;9.50;;;7.50;;
62947;SDS011;51940;52.126;-0.994;2022-07-23T07:39:02;7.20;;;6.20;;
62947;SDS011;51940;52.126;-0.994;2022-07-23T07:41:30;6.90;;;5.80;;
62947;SDS011;51940;52.126;-0.994;2022-07-23T07:43:56;13.40;;;6.40;;
62947;SDS011;51940;52.126;-0.994;2022-07-23T07:46:21;10.20;;;6.50;;
62947;SDS011;51940;52.126;-0.994;2022-07-23T07:48:52;5.00;;;4.50;;
62947;SDS011;51940;52.126;-0.994;2022-07-23T07:51:18;5.70;;;4.80;;
62947;SDS011;51940;52.126;-0.994;2022-07-23T07:53:44;6.70;;;5.20;;
62947;SDS011;51940;52.126;-0.994;2022-07-23T07:56:09;7.40;;;4.10;;
62947;SDS011;51940;52.126;-0.994;2022-07-23T07:58:35;5.00;;;4.30;;
62947;SDS011;51940;52.126;-0.994;2022-07-23T08:01:00;7.00;;;4.90;;
62947;SDS011;51940;52.126;-0.994;2022-07-23T08:03:27;7.10;;;4.80;;
62947;SDS011;51940;52.126;-0.994;2022-07-23T08:05:53;5.30;;;4.30;;
62947;SDS011;51940;52.126;-0.994;2022-07-23T08:08:18;5.10;;;4.60;;
62947;SDS011;51940;52.126;-0.994;2022-07-23T08:10:44;6.80;;;3.90;;
62947;SDS011;51940;52.126;-0.994;2022-07-23T08:13:12;4.70;;;3.80;;
62947;SDS011;51940;52.126;-0.994;2022-07-23T08:15:39;5.30;;;3.80;;
62947;SDS011;51940;52.126;-0.994;2022-07-23T08:18:05;4.40;;;4.00;;
62947;SDS011;51940;52.126;-0.994;2022-07-23T08:20:31;5.80;;;3.80;;
62947;SDS011;51940;52.126;-0.994;2022-07-23T08:23:00;4.60;;;4.10;;
62947;SDS011;51940;52.126;-0.994;2022-07-23T08:25:29;6.30;;;3.90;;
62947;SDS011;51940;52.126;-0.994;2022-07-23T08:27:58;4.90;;;3.60;;
62947;SDS011;51940;52.126;-0.994;2022-07-23T08:30:25;5.70;;;3.90;;
62947;SDS011;51940;52.126;-0.994;2022-07-23T08:32:52;5.20;;;3.80;;
62947;SDS011;51940;52.126;-0.994;2022-07-23T08:35:55;5.80;;;3.50;;
62947;SDS011;51940;52.126;-0.994;2022-07-23T08:38:16;6.20;;;3.60;;
62947;SDS011;51940;52.126;-0.994;2022-07-23T08:40:47;5.30;;;3.90;;
62947;SDS011;51940;52.126;-0.994;2022-07-23T08:43:20;5.50;;;3.80;;
62947;SDS011;51940;52.126;-0.994;2022-07-23T08:45:53;5.90;;;4.00;;
62947;SDS011;51940;52.126;-0.994;2022-07-23T08:48:25;4.80;;;3.70;;
62947;SDS011;51940;52.126;-0.994;2022-07-23T08:50:53;5.30;;;3.60;;
62947;SDS011;51940;52.126;-0.994;2022-07-23T08:53:21;5.10;;;3.80;;
62947;SDS011;51940;52.126;-0.994;2022-07-23T08:55:55;5.60;;;3.10;;
62947;SDS011;51940;52.126;-0.994;2022-07-23T08:58:23;4.40;;;3.10;;
62947;SDS011;51940;52.126;-0.994;2022-07-23T09:00:50;5.20;;;3.40;;
62947;SDS011;51940;52.126;-0.994;2022-07-23T09:03:20;5.50;;;3.20;;
62947;SDS011;51940;52.126;-0.994;2022-07-23T09:05:52;3.60;;;2.80;;
62947;SDS011;51940;52.126;-0.994;2022-07-23T09:08:19;5.80;;;3.00;;
62947;SDS011;51940;52.126;-0.994;2022-07-23T09:16:15;5.20;;;3.30;;
62947;SDS011;51940;52.126;-0.994;2022-07-23T09:18:47;3.60;;;3.10;;
62947;SDS011;51940;52.126;-0.994;2022-07-23T09:21:17;5.90;;;2.90;;
62947;SDS011;51940;52.126;-0.994;2022-07-23T09:23:52;4.70;;;2.80;;
62947;SDS011;51940;52.126;-0.994;2022-07-23T09:26:25;4.80;;;2.90;;
62947;SDS011;51940;52.126;-0.994;2022-07-23T09:28:57;4.90;;;3.00;;
62947;SDS011;51940;52.126;-0.994;2022-07-23T09:31:33;4.40;;;2.80;;
62947;SDS011;51940;52.126;-0.994;2022-07-23T09:34:10;6.10;;;3.10;;
62947;SDS011;51940;52.126;-0.994;2022-07-23T09:36:42;5.10;;;3.20;;
62947;SDS011;51940;52.126;-0.994;2022-07-23T09:39:08;5.70;;;2.80;;
62947;SDS011;51940;52.126;-0.994;2022-07-23T09:41:38;4.80;;;2.80;;
62947;SDS011;51940;52.126;-0.994;2022-07-23T09:44:11;3.80;;;2.50;;
62947;SDS011;51940;52.126;-0.994;2022-07-23T09:46:39;3.60;;;2.90;;
62947;SDS011;51940;52.126;-0.994;2022-07-23T09:49:10;5.00;;;2.60;;
62947;SDS011;51940;52.126;-0.994;2022-07-23T09:51:47;3.50;;;2.20;;
62947;SDS011;51940;52.126;-0.994;2022-07-23T09:56:55;3.40;;;2.00;;
62947;SDS011;51940;52.126;-0.994;2022-07-23T09:59:25;6.50;;;2.40;;
62947;SDS011;51940;52.126;-0.994;2022-07-23T10:01:56;3.30;;;2.20;;
62947;SDS011;51940;52.126;-0.994;2022-07-23T10:04:25;2.70;;;2.30;;
62947;SDS011;51940;52.126;-0.994;2022-07-23T10:06:56;3.10;;;2.20;;
62947;SDS011;51940;52.126;-0.994;2022-07-23T10:09:25;2.50;;;2.10;;
62947;SDS011;51940;52.126;-0.994;2022-07-23T10:11:55;3.40;;;1.70;;
62947;SDS011;51940;52.126;-0.994;2022-07-23T10:14:31;2.40;;;1.70;;
62947;SDS011;51940;52.126;-0.994;2022-07-23T10:16:58;2.70;;;2.10;;
62947;SDS011;51940;52.126;-0.994;2022-07-23T10:19:26;4.10;;;2.10;;
62947;SDS011;51940;52.126;-0.994;2022-07-23T10:21:53;3.50;;;2.20;;
62947;SDS011;51940;52.126;-0.994;2022-07-23T10:32:19;4.00;;;2.30;;
62947;SDS011;51940;52.126;-0.994;2022-07-23T10:38:22;2.70;;;1.90;;
62947;SDS011;51940;52.126;-0.994;2022-07-23T10:40:55;1.90;;;1.60;;
62947;SDS011;51940;52.126;-0.994;2022-07-23T10:43:22;1.80;;;1.70;;
62947;SDS011;51940;52.126;-0.994;2022-07-23T10:49:20;3.00;;;1.70;;
62947;SDS011;51940;52.126;-0.994;2022-07-23T10:57:47;2.30;;;1.40;;
62947;SDS011;51940;52.126;-0.994;2022-07-23T11:00:21;4.90;;;1.50;;
62947;SDS011;51940;52.126;-0.994;2022-07-23T11:02:49;2.60;;;1.60;;
62947;SDS011;51940;52.126;-0.994;2022-07-23T11:05:18;1.60;;;1.20;;
62947;SDS011;51940;52.126;-0.994;2022-07-23T11:16:07;2.50;;;1.70;;
62947;SDS011;51940;52.126;-0.994;2022-07-23T11:31:58;1.30;;;1.10;;
62947;SDS011;51940;52.126;-0.994;2022-07-23T11:37:04;1.70;;;1.20;;
62947;SDS011;51940;52.126;-0.994;2022-07-23T11:39:35;2.00;;;1.20;;
62947;SDS011;51940;52.126;-0.994;2022-07-23T11:42:02;1.60;;;1.10;;
62947;SDS011;51940;52.126;-0.994;2022-07-23T11:44:33;1.60;;;1.20;;
62947;SDS011;51940;52.126;-0.994;2022-07-23T11:47:10;1.40;;;1.10;;
62947;SDS011;51940;52.126;-0.994;2022-07-23T11:49:41;1.70;;;1.10;;
62947;SDS011;51940;52.126;-0.994;2022-07-23T11:52:18;1.10;;;1.00;;
62947;SDS011;51940;52.126;-0.994;2022-07-23T11:54:51;1.20;;;1.10;;
62947;SDS011;51940;52.126;-0.994;2022-07-23T11:57:19;2.70;;;1.10;;
62947;SDS011;51940;52.126;-0.994;2022-07-23T11:59:47;1.30;;;1.10;;
62947;SDS011;51940;52.126;-0.994;2022-07-23T12:02:16;2.30;;;1.20;;
62947;SDS011;51940;52.126;-0.994;2022-07-23T12:04:46;1.50;;;1.00;;
62947;SDS011;51940;52.126;-0.994;2022-07-23T12:07:32;1.00;;;0.90;;
62947;SDS011;51940;52.126;-0.994;2022-07-23T12:13:25;1.60;;;0.80;;
62947;SDS011;51940;52.126;-0.994;2022-07-23T12:15:28;1.40;;;0.90;;
62947;SDS011;51940;52.126;-0.994;2022-07-23T12:17:55;0.80;;;0.80;;
62947;SDS011;51940;52.126;-0.994;2022-07-23T12:20:22;1.60;;;1.00;;
62947;SDS011;51940;52.126;-0.994;2022-07-23T12:22:51;0.90;;;0.90;;
62947;SDS011;51940;52.126;-0.994;2022-07-23T12:25:21;0.80;;;0.70;;
62947;SDS011;51940;52.126;-0.994;2022-07-23T12:30:54;1.90;;;0.90;;
62947;SDS011;51940;52.126;-0.994;2022-07-23T12:33:25;0.90;;;0.80;;
62947;SDS011;51940;52.126;-0.994;2022-07-23T12:35:53;1.60;;;0.80;;
62947;SDS011;51940;52.126;-0.994;2022-07-23T12:38:21;1.00;;;0.80;;
62947;SDS011;51940;52.126;-0.994;2022-07-23T12:40:53;0.80;;;0.80;;
62947;SDS011;51940;52.126;-0.994;2022-07-23T12:43:26;1.30;;;0.70;;
62947;SDS011;51940;52.126;-0.994;2022-07-23T12:46:12;1.20;;;0.80;;
62947;SDS011;51940;52.126;-0.994;2022-07-23T12:48:49;0.80;;;0.80;;
62947;SDS011;51940;52.126;-0.994;2022-07-23T12:51:24;0.70;;;0.70;;
62947;SDS011;51940;52.126;-0.994;2022-07-23T12:53:55;0.60;;;0.60;;
62947;SDS011;51940;52.126;-0.994;2022-07-23T12:56:27;1.80;;;0.90;;
62947;SDS011;51940;52.126;-0.994;2022-07-23T12:58:56;2.60;;;1.00;;
62947;SDS011;51940;52.126;-0.994;2022-07-23T13:01:29;2.20;;;0.80;;
62947;SDS011;51940;52.126;-0.994;2022-07-23T13:06:25;1.10;;;0.70;;
62947;SDS011;51940;52.126;-0.994;2022-07-23T13:08:55;1.50;;;0.80;;
62947;SDS011;51940;52.126;-0.994;2022-07-23T13:11:21;1.10;;;0.70;;
62947;SDS011;51940;52.126;-0.994;2022-07-23T13:13:46;0.90;;;0.80;;
62947;SDS011;51940;52.126;-0.994;2022-07-23T13:16:14;1.10;;;0.60;;
62947;SDS011;51940;52.126;-0.994;2022-07-23T13:18:43;2.20;;;0.70;;
62947;SDS011;51940;52.126;-0.994;2022-07-23T13:21:09;0.90;;;0.70;;
62947;SDS011;51940;52.126;-0.994;2022-07-23T13:23:35;0.90;;;0.70;;
62947;SDS011;51940;52.126;-0.994;2022-07-23T13:26:01;1.10;;;0.70;;
62947;SDS011;51940;52.126;-0.994;2022-07-23T13:28:27;0.70;;;0.70;;
62947;SDS011;51940;52.126;-0.994;2022-07-23T13:30:52;0.70;;;0.60;;
62947;SDS011;51940;52.126;-0.994;2022-07-23T13:33:20;0.70;;;0.60;;
62947;SDS011;51940;52.126;-0.994;2022-07-23T13:35:46;0.90;;;0.70;;
62947;SDS011;51940;52.126;-0.994;2022-07-23T13:38:22;0.70;;;0.70;;
62947;SDS011;51940;52.126;-0.994;2022-07-23T13:40:51;1.00;;;0.70;;
62947;SDS011;51940;52.126;-0.994;2022-07-23T13:43:19;2.60;;;0.70;;
62947;SDS011;51940;52.126;-0.994;2022-07-23T13:45:46;1.80;;;0.70;;
62947;SDS011;51940;52.126;-0.994;2022-07-23T13:48:16;1.10;;;0.70;;
62947;SDS011;51940;52.126;-0.994;2022-07-23T13:50:45;1.10;;;0.60;;
62947;SDS011;51940;52.126;-0.994;2022-07-23T13:53:13;0.80;;;0.70;;
62947;SDS011;51940;52.126;-0.994;2022-07-23T13:55:42;0.80;;;0.70;;
62947;SDS011;51940;52.126;-0.994;2022-07-23T13:58:09;1.50;;;0.60;;
62947;SDS011;51940;52.126;-0.994;2022-07-23T14:00:37;0.80;;;0.60;;
62947;SDS011;51940;52.126;-0.994;2022-07-23T14:03:04;0.70;;;0.60;;
62947;SDS011;51940;52.126;-0.994;2022-07-23T14:05:32;1.40;;;0.60;;
62947;SDS011;51940;52.126;-0.994;2022-07-23T14:07:57;0.60;;;0.60;;
62947;SDS011;51940;52.126;-0.994;2022-07-23T14:10:23;0.70;;;0.60;;
62947;SDS011;51940;52.126;-0.994;2022-07-23T14:12:49;0.60;;;0.60;;
62947;SDS011;51940;52.126;-0.994;2022-07-23T14:15:17;0.50;;;0.50;;
62947;SDS011;51940;52.126;-0.994;2022-07-23T14:17:44;0.70;;;0.60;;
62947;SDS011;51940;52.126;-0.994;2022-07-23T14:20:11;0.70;;;0.60;;
62947;SDS011;51940;52.126;-0.994;2022-07-23T14:22:38;0.80;;;0.70;;
62947;SDS011;51940;52.126;-0.994;2022-07-23T14:25:05;2.30;;;0.60;;
62947;SDS011;51940;52.126;-0.994;2022-07-23T14:27:31;1.20;;;0.70;;
62947;SDS011;51940;52.126;-0.994;2022-07-23T14:29:57;0.70;;;0.70;;
62947;SDS011;51940;52.126;-0.994;2022-07-23T14:32:23;0.70;;;0.70;;
62947;SDS011;51940;52.126;-0.994;2022-07-23T14:34:49;0.70;;;0.70;;
62947;SDS011;51940;52.126;-0.994;2022-07-23T14:37:15;1.40;;;0.90;;
62947;SDS011;51940;52.126;-0.994;2022-07-23T14:39:42;2.00;;;0.70;;
62947;SDS011;51940;52.126;-0.994;2022-07-23T14:42:08;0.90;;;0.80;;
62947;SDS011;51940;52.126;-0.994;2022-07-23T14:44:34;0.80;;;0.80;;
62947;SDS011;51940;52.126;-0.994;2022-07-23T14:47:01;1.50;;;0.90;;
62947;SDS011;51940;52.126;-0.994;2022-07-23T14:49:28;0.70;;;0.70;;
62947;SDS011;51940;52.126;-0.994;2022-07-23T14:51:54;0.80;;;0.80;;
62947;SDS011;51940;52.126;-0.994;2022-07-23T14:54:19;1.20;;;1.10;;
62947;SDS011;51940;52.126;-0.994;2022-07-23T14:56:45;3.70;;;1.40;;
62947;SDS011;51940;52.126;-0.994;2022-07-23T14:59:11;1.10;;;0.90;;
62947;SDS011;51940;52.126;-0.994;2022-07-23T15:01:37;2.50;;;0.90;;
62947;SDS011;51940;52.126;-0.994;2022-07-23T15:04:04;1.00;;;1.00;;
62947;SDS011;51940;52.126;-0.994;2022-07-23T15:06:31;1.20;;;1.10;;
62947;SDS011;51940;52.126;-0.994;2022-07-23T15:09:02;2.20;;;0.90;;
62947;SDS011;51940;52.126;-0.994;2022-07-23T15:11:39;1.20;;;0.90;;
62947;SDS011;51940;52.126;-0.994;2022-07-23T15:14:05;1.00;;;0.90;;
62947;SDS011;51940;52.126;-0.994;2022-07-23T15:16:30;1.10;;;1.00;;
62947;SDS011;51940;52.126;-0.994;2022-07-23T15:18:57;1.00;;;0.90;;
62947;SDS011;51940;52.126;-0.994;2022-07-23T15:21:23;1.00;;;0.90;;
62947;SDS011;51940;52.126;-0.994;2022-07-23T15:23:48;0.90;;;0.80;;
62947;SDS011;51940;52.126;-0.994;2022-07-23T15:26:14;0.90;;;0.90;;
62947;SDS011;51940;52.126;-0.994;2022-07-23T15:28:40;1.10;;;0.90;;
62947;SDS011;51940;52.126;-0.994;2022-07-23T15:31:07;1.20;;;0.80;;
62947;SDS011;51940;52.126;-0.994;2022-07-23T15:33:34;2.30;;;0.90;;
62947;SDS011;51940;52.126;-0.994;2022-07-23T15:36:02;1.60;;;0.80;;